Terminal Aerodrome Forecast
Issued by NWS Sioux Falls, SD

Home | Current Version | Previous Version | Graphics & Text | Print | Product List | Glossary On
Versions: 1 2 3 4 5 6 7 8 9 10 11 12
000
FTUS43 KFSD 282330
TAFHON
TAF
KHON 282330Z 2900/2924 13005KT P6SM BKN200
      TEMPO 2911/2913 3SM BR
     FM291300 17007KT P6SM SKC
     FM291800 17013KT P6SM SKC=

USA.gov is the U.S. government's official web portal to all federal, state and local government web resources and services.